createdAt,value
2017-03-15T00:01:11.677Z,0
2017-03-15T00:02:24.917Z,0
2017-03-15T00:03:38.157Z,0
2017-03-15T00:04:51.445Z,0
2017-03-15T00:06:04.738Z,0
2017-03-15T00:07:18.027Z,0
2017-03-15T00:08:30.804Z,0
2017-03-15T00:09:44.038Z,0
2017-03-15T00:10:56.792Z,0
2017-03-15T00:12:09.541Z,0
2017-03-15T00:13:22.795Z,0
2017-03-15T00:14:36.045Z,0
2017-03-15T00:15:49.354Z,0
2017-03-15T00:17:01.594Z,0
2017-03-15T00:18:14.867Z,0
2017-03-15T00:19:27.590Z,0
2017-03-15T00:20:40.338Z,0
2017-03-15T00:21:53.133Z,0
2017-03-15T00:23:06.398Z,0
2017-03-15T00:24:19.208Z,0
2017-03-15T00:25:31.955Z,0
2017-03-15T00:26:44.687Z,0
2017-03-15T00:27:57.951Z,0
2017-03-15T00:29:10.696Z,0
2017-03-15T00:30:23.996Z,0
2017-03-15T00:31:36.248Z,0
2017-03-15T00:32:49.542Z,0
2017-03-15T00:34:02.309Z,0
2017-03-15T00:35:15.530Z,0
2017-03-15T00:36:28.296Z,0
2017-03-15T00:37:40.552Z,0
2017-03-15T00:38:52.774Z,0
2017-03-15T00:40:05.547Z,0
2017-03-15T00:41:18.790Z,0
2017-03-15T00:42:32.051Z,0
2017-03-15T00:43:44.777Z,0
2017-03-15T00:44:58.027Z,0
2017-03-15T00:46:11.352Z,0
2017-03-15T00:47:24.674Z,0
2017-03-15T00:48:37.411Z,0
2017-03-15T00:49:50.162Z,0
2017-03-15T00:51:01.872Z,0
2017-03-15T00:52:15.134Z,0
2017-03-15T00:53:27.892Z,0
2017-03-15T00:54:41.141Z,0
2017-03-15T00:55:54.384Z,0
2017-03-15T00:57:07.628Z,0
2017-03-15T00:58:20.892Z,0
2017-03-15T00:59:33.636Z,0
2017-03-15T01:00:46.938Z,0
2017-03-15T01:02:00.194Z,0
2017-03-15T01:03:12.422Z,0
2017-03-15T01:04:25.695Z,0
2017-03-15T01:05:38.968Z,0
2017-03-15T01:06:52.244Z,0
2017-03-15T01:08:04.960Z,0
2017-03-15T01:09:18.198Z,0
2017-03-15T01:10:29.915Z,0
2017-03-15T01:11:43.619Z,0
2017-03-15T01:12:56.388Z,0
2017-03-15T01:14:09.694Z,0
2017-03-15T01:15:22.958Z,0
2017-03-15T01:16:36.247Z,0
2017-03-15T01:17:49.485Z,0
2017-03-15T01:19:02.750Z,0
2017-03-15T01:20:15.498Z,0
2017-03-15T01:21:28.773Z,0
2017-03-15T01:22:42.060Z,0
2017-03-15T01:23:55.315Z,0
2017-03-15T01:25:08.082Z,0
2017-03-15T01:26:21.366Z,0
2017-03-15T01:27:34.633Z,0
2017-03-15T01:28:47.368Z,0
2017-03-15T01:29:59.591Z,0
2017-03-15T01:31:12.339Z,0
2017-03-15T01:32:25.601Z,0
2017-03-15T01:33:38.885Z,0
2017-03-15T01:34:51.122Z,0
2017-03-15T01:36:03.893Z,0
2017-03-15T01:37:16.121Z,0
2017-03-15T01:38:28.886Z,0
2017-03-15T01:39:42.195Z,0
2017-03-15T01:40:55.488Z,0
2017-03-15T01:42:08.236Z,0
2017-03-15T01:43:21.499Z,0
2017-03-15T01:44:34.765Z,0
2017-03-15T01:45:48.034Z,0
2017-03-15T01:46:59.726Z,0
2017-03-15T01:48:12.532Z,0
2017-03-15T01:49:25.804Z,0
2017-03-15T01:50:39.077Z,0
2017-03-15T01:51:52.345Z,0
2017-03-15T01:53:05.587Z,0
2017-03-15T01:54:18.858Z,0
2017-03-15T01:55:32.125Z,0
2017-03-15T01:56:45.400Z,0
2017-03-15T01:57:58.167Z,0
2017-03-15T01:59:11.417Z,0
2017-03-15T02:00:24.146Z,0
2017-03-15T02:01:37.422Z,0
2017-03-15T02:02:50.157Z,0
2017-03-15T02:04:02.395Z,0
2017-03-15T02:05:15.138Z,0
2017-03-15T02:06:28.475Z,0
2017-03-15T02:07:40.700Z,0
2017-03-15T02:08:52.990Z,0
2017-03-15T02:10:05.208Z,0
2017-03-15T02:11:17.953Z,0
2017-03-15T02:12:30.693Z,0
2017-03-15T02:13:43.950Z,0
2017-03-15T02:14:56.707Z,0
2017-03-15T02:16:09.422Z,0
2017-03-15T02:17:22.181Z,0
2017-03-15T02:18:35.456Z,0
2017-03-15T02:19:48.808Z,0
2017-03-15T02:21:01.558Z,0
2017-03-15T02:22:14.836Z,0
2017-03-15T02:23:28.086Z,0
2017-03-15T02:24:40.878Z,0
2017-03-15T02:25:53.624Z,0
2017-03-15T02:27:06.364Z,0
2017-03-15T02:28:20.217Z,0
2017-03-15T02:29:33.025Z,0
2017-03-15T02:30:45.765Z,0
2017-03-15T02:31:58.984Z,0
2017-03-15T02:33:12.228Z,0
2017-03-15T02:34:24.973Z,0
2017-03-15T02:35:37.739Z,0
2017-03-15T02:36:50.002Z,0
2017-03-15T02:38:02.235Z,0
2017-03-15T02:39:15.476Z,0
2017-03-15T02:40:28.808Z,0
2017-03-15T02:41:41.144Z,0
2017-03-15T02:42:54.114Z,0
2017-03-15T02:44:06.852Z,0
2017-03-15T02:45:19.571Z,0
2017-03-15T02:46:32.290Z,0
2017-03-15T02:47:45.557Z,0
2017-03-15T02:48:58.829Z,0
2017-03-15T02:50:11.044Z,0
2017-03-15T02:51:24.312Z,0
2017-03-15T02:52:37.059Z,0
2017-03-15T02:53:50.294Z,0
2017-03-15T02:55:03.019Z,0
2017-03-15T02:56:15.745Z,0
2017-03-15T02:57:28.468Z,0
2017-03-15T02:58:41.209Z,0
2017-03-15T02:59:54.008Z,0
2017-03-15T03:01:06.277Z,0
2017-03-15T03:02:19.522Z,0
2017-03-15T03:03:31.746Z,0
2017-03-15T03:04:44.462Z,0
2017-03-15T03:05:57.186Z,0
2017-03-15T03:07:10.425Z,0
2017-03-15T03:08:23.701Z,0
2017-03-15T03:09:36.496Z,0
2017-03-15T03:10:49.223Z,0
2017-03-15T03:12:02.449Z,0
2017-03-15T03:13:15.706Z,0
2017-03-15T03:14:28.979Z,0
2017-03-15T03:15:42.208Z,0
2017-03-15T03:16:55.477Z,0
2017-03-15T03:18:08.258Z,0
2017-03-15T03:19:21.513Z,0
2017-03-15T03:20:34.751Z,0
2017-03-15T03:21:46.962Z,0
2017-03-15T03:22:59.211Z,0
2017-03-15T03:24:11.959Z,0
2017-03-15T03:25:24.701Z,0
2017-03-15T03:26:37.951Z,0
2017-03-15T03:27:51.201Z,0
2017-03-15T03:29:04.467Z,0
2017-03-15T03:30:17.249Z,0
2017-03-15T03:31:30.524Z,0
2017-03-15T03:32:43.260Z,0
2017-03-15T03:33:56.516Z,0
2017-03-15T03:35:09.746Z,0
2017-03-15T03:36:22.483Z,0
2017-03-15T03:37:35.766Z,0
2017-03-15T03:38:49.058Z,0
2017-03-15T03:40:01.790Z,0
2017-03-15T03:41:14.535Z,0
2017-03-15T03:42:27.801Z,0
2017-03-15T03:43:40.556Z,0
2017-03-15T03:44:53.847Z,0
2017-03-15T03:46:07.163Z,0
2017-03-15T03:47:19.885Z,0
2017-03-15T03:48:33.128Z,0
2017-03-15T03:49:46.418Z,0
2017-03-15T03:50:59.670Z,0
2017-03-15T03:52:11.890Z,0
2017-03-15T03:53:25.102Z,0
2017-03-15T03:54:37.878Z,0
2017-03-15T03:55:50.631Z,0
2017-03-15T03:57:03.919Z,0
2017-03-15T03:58:16.644Z,0
2017-03-15T03:59:29.923Z,0
2017-03-15T04:00:42.211Z,0
2017-03-15T04:01:54.960Z,0
2017-03-15T04:03:06.657Z,0
2017-03-15T04:04:19.902Z,0
2017-03-15T04:05:33.184Z,0
2017-03-15T04:06:45.939Z,0
2017-03-15T04:07:58.671Z,0
2017-03-15T04:09:11.926Z,0
2017-03-15T04:10:25.211Z,0
2017-03-15T04:11:38.493Z,0
2017-03-15T04:12:51.791Z,0
2017-03-15T04:14:05.054Z,0
2017-03-15T04:15:18.327Z,0
2017-03-15T04:16:31.570Z,0
2017-03-15T04:17:44.321Z,0
2017-03-15T04:18:57.061Z,0
2017-03-15T04:20:10.327Z,0
2017-03-15T04:21:23.076Z,0
2017-03-15T04:22:35.838Z,0
2017-03-15T04:23:49.090Z,0
2017-03-15T04:25:02.372Z,0
2017-03-15T04:26:15.094Z,0
2017-03-15T04:27:28.312Z,0
2017-03-15T04:28:41.594Z,0
2017-03-15T04:29:54.384Z,0
2017-03-15T04:31:07.104Z,0
2017-03-15T04:32:19.838Z,0
2017-03-15T04:33:32.623Z,0
2017-03-15T04:34:45.376Z,0
2017-03-15T04:35:58.645Z,0
2017-03-15T04:37:11.905Z,0
2017-03-15T04:38:24.641Z,0
2017-03-15T04:39:37.392Z,0
2017-03-15T04:40:50.650Z,0
2017-03-15T04:42:03.871Z,0
2017-03-15T04:43:17.135Z,0
2017-03-15T04:44:30.385Z,0
2017-03-15T04:45:43.158Z,0
2017-03-15T04:46:56.377Z,0
2017-03-15T04:48:09.644Z,0
2017-03-15T04:49:22.370Z,0
2017-03-15T04:50:35.647Z,0
2017-03-15T04:51:48.888Z,0
2017-03-15T04:53:02.145Z,0
2017-03-15T04:54:15.476Z,0
2017-03-15T04:55:28.759Z,0
2017-03-15T04:56:41.494Z,0
2017-03-15T04:57:54.736Z,0
2017-03-15T04:59:07.496Z,0
2017-03-15T05:00:20.762Z,0
2017-03-15T05:01:34.034Z,0
2017-03-15T05:02:46.764Z,0
2017-03-15T05:04:00.008Z,0
2017-03-15T05:05:12.744Z,0
2017-03-15T05:06:25.498Z,0
2017-03-15T05:07:38.225Z,0
2017-03-15T05:08:50.967Z,0
2017-03-15T05:10:04.201Z,0
2017-03-15T05:11:17.441Z,0
2017-03-15T05:12:30.233Z,0
2017-03-15T05:13:43.488Z,0
2017-03-15T05:14:56.898Z,0
2017-03-15T05:16:10.150Z,0
2017-03-15T05:17:22.342Z,0
2017-03-15T05:18:35.597Z,0
2017-03-15T05:19:47.837Z,0
2017-03-15T05:21:01.146Z,0
2017-03-15T05:22:14.399Z,0
2017-03-15T05:23:27.682Z,0
2017-03-15T05:24:40.944Z,0
2017-03-15T05:25:53.667Z,0
2017-03-15T05:27:05.895Z,0
2017-03-15T05:28:18.643Z,0
2017-03-15T05:29:30.901Z,0
2017-03-15T05:30:43.628Z,0
2017-03-15T05:31:55.863Z,0
2017-03-15T05:33:09.119Z,0
2017-03-15T05:34:21.850Z,0
2017-03-15T05:35:35.115Z,0
2017-03-15T05:36:47.373Z,0
2017-03-15T05:38:00.109Z,0
2017-03-15T05:39:12.345Z,0
2017-03-15T05:40:25.626Z,0
2017-03-15T05:41:38.397Z,0
2017-03-15T05:42:51.133Z,0
2017-03-15T05:44:04.451Z,0
2017-03-15T05:45:17.880Z,0
2017-03-15T05:46:30.638Z,0
2017-03-15T05:47:43.956Z,0
2017-03-15T05:48:57.219Z,0
2017-03-15T05:50:09.435Z,0
2017-03-15T05:51:22.166Z,0
2017-03-15T05:52:35.437Z,0
2017-03-15T05:53:48.182Z,0
2017-03-15T05:55:00.400Z,0
2017-03-15T05:56:12.659Z,0
2017-03-15T05:57:25.937Z,0
2017-03-15T05:58:38.183Z,0
2017-03-15T05:59:51.451Z,0
2017-03-15T06:01:04.214Z,0
2017-03-15T06:02:16.998Z,0
2017-03-15T06:03:29.734Z,0
2017-03-15T06:04:42.986Z,0
2017-03-15T06:05:56.264Z,0
2017-03-15T06:07:09.527Z,0
2017-03-15T06:08:22.283Z,0
2017-03-15T06:09:35.014Z,0
2017-03-15T06:10:47.230Z,0
2017-03-15T06:11:59.985Z,0
2017-03-15T06:13:12.211Z,0
2017-03-15T06:14:25.544Z,0
2017-03-15T06:15:38.369Z,0
2017-03-15T06:16:52.348Z,0
2017-03-15T06:18:05.775Z,0
2017-03-15T06:19:19.247Z,0
2017-03-15T06:20:33.214Z,0
2017-03-15T06:21:47.273Z,0
2017-03-15T06:23:00.664Z,0
2017-03-15T06:24:14.070Z,0
2017-03-15T06:25:27.479Z,0
2017-03-15T06:26:40.343Z,0
2017-03-15T06:27:54.328Z,0
2017-03-15T06:29:07.737Z,0
2017-03-15T06:30:21.700Z,0
2017-03-15T06:31:35.658Z,0
2017-03-15T06:32:49.661Z,0
2017-03-15T06:34:02.488Z,0
2017-03-15T06:35:15.890Z,0
2017-03-15T06:36:29.841Z,0
2017-03-15T06:37:43.254Z,0
2017-03-15T06:38:56.669Z,0
2017-03-15T06:40:09.499Z,0
2017-03-15T06:41:22.336Z,0
2017-03-15T06:42:36.316Z,0
2017-03-15T06:43:49.190Z,0
2017-03-15T06:45:03.200Z,0
2017-03-15T06:46:16.707Z,0
2017-03-15T06:47:30.674Z,0
2017-03-15T06:48:44.074Z,0
2017-03-15T06:49:58.033Z,0
2017-03-15T06:51:12.030Z,0
2017-03-15T06:52:26.040Z,0
2017-03-15T06:53:38.922Z,0
2017-03-15T06:54:52.330Z,0
2017-03-15T06:56:06.275Z,0
2017-03-15T06:57:18.567Z,0
2017-03-15T06:58:31.988Z,0
2017-03-15T06:59:46.006Z,0
2017-03-15T07:01:00.015Z,0
2017-03-15T07:02:13.407Z,0
2017-03-15T07:03:27.424Z,0
2017-03-15T07:04:41.407Z,0
2017-03-15T07:05:55.382Z,0
2017-03-15T07:07:08.246Z,0
2017-03-15T07:08:22.215Z,0
2017-03-15T07:09:36.248Z,0
2017-03-15T07:10:50.279Z,0
2017-03-15T07:12:04.278Z,0
2017-03-15T07:13:18.266Z,0
2017-03-15T07:14:32.228Z,0
2017-03-15T07:15:45.624Z,0
2017-03-15T07:16:59.073Z,0
2017-03-15T07:18:11.917Z,0
2017-03-15T07:19:25.917Z,0
2017-03-15T07:20:38.794Z,0
2017-03-15T07:21:52.244Z,0
2017-03-15T07:23:05.674Z,0
2017-03-15T07:24:18.526Z,0
2017-03-15T07:25:31.391Z,0
2017-03-15T07:26:43.702Z,0
2017-03-15T07:27:57.707Z,0
2017-03-15T07:29:11.675Z,0
2017-03-15T07:30:25.109Z,0
2017-03-15T07:31:39.107Z,0
2017-03-15T07:32:52.545Z,0
2017-03-15T07:34:05.962Z,0
2017-03-15T07:35:19.944Z,0
2017-03-15T07:36:33.359Z,0
2017-03-15T07:37:46.780Z,0
2017-03-15T07:39:00.161Z,0
2017-03-15T07:40:14.146Z,0
2017-03-15T07:41:28.162Z,0
2017-03-15T07:42:42.152Z,0
2017-03-15T07:43:56.142Z,0
2017-03-15T07:45:09.015Z,0
2017-03-15T07:46:22.962Z,0
2017-03-15T07:47:36.936Z,0
2017-03-15T07:48:50.912Z,0
2017-03-15T07:50:03.769Z,0
2017-03-15T07:51:17.219Z,0
2017-03-15T07:52:31.196Z,0
2017-03-15T07:53:45.165Z,0
2017-03-15T07:54:58.052Z,0
2017-03-15T07:56:12.011Z,0
2017-03-15T07:57:25.403Z,0
2017-03-15T07:58:39.363Z,0
2017-03-15T07:59:52.773Z,0
2017-03-15T08:01:06.182Z,0
2017-03-15T08:02:19.612Z,0
2017-03-15T08:03:33.595Z,0
2017-03-15T08:04:47.577Z,0
2017-03-15T08:06:01.071Z,0
2017-03-15T08:07:15.055Z,0
2017-03-15T08:08:29.057Z,0
2017-03-15T08:09:41.334Z,0
2017-03-15T08:10:55.318Z,0
2017-03-15T08:12:09.276Z,0
2017-03-15T08:13:22.683Z,0
2017-03-15T08:14:36.684Z,0
2017-03-15T08:15:50.644Z,0
2017-03-15T08:17:04.606Z,0
2017-03-15T08:18:18.013Z,0
2017-03-15T08:19:30.846Z,0
2017-03-15T08:20:44.804Z,0
2017-03-15T08:21:58.200Z,0
2017-03-15T08:23:11.598Z,0
2017-03-15T08:24:25.724Z,0
2017-03-15T08:25:39.715Z,0
2017-03-15T08:26:53.713Z,0
2017-03-15T08:28:07.734Z,0
2017-03-15T08:29:21.716Z,0
2017-03-15T08:30:35.731Z,0
2017-03-15T08:31:49.157Z,0
2017-03-15T08:33:03.108Z,0
2017-03-15T08:34:16.584Z,0
2017-03-15T08:35:30.576Z,0
2017-03-15T08:36:43.978Z,0
2017-03-15T08:37:57.946Z,0
2017-03-15T08:39:11.963Z,0
2017-03-15T08:40:25.934Z,0
2017-03-15T08:41:39.892Z,0
2017-03-15T08:42:53.872Z,0
2017-03-15T08:44:07.306Z,0
2017-03-15T08:45:21.265Z,0
2017-03-15T08:46:34.104Z,0
2017-03-15T08:47:48.102Z,0
2017-03-15T08:49:01.512Z,0
2017-03-15T08:50:15.491Z,0
2017-03-15T08:51:29.464Z,0
2017-03-15T08:52:43.433Z,0
2017-03-15T08:53:56.869Z,0
2017-03-15T08:55:11.039Z,0
2017-03-15T08:56:24.528Z,0
2017-03-15T08:57:38.492Z,0
2017-03-15T08:58:51.928Z,0
2017-03-15T09:00:05.356Z,0
2017-03-15T09:01:19.330Z,5
2017-03-15T09:02:33.308Z,5
2017-03-15T09:03:47.287Z,5
2017-03-15T09:05:00.125Z,10
2017-03-15T09:06:14.098Z,10
2017-03-15T09:07:27.507Z,15
2017-03-15T09:08:40.893Z,15
2017-03-15T09:09:54.856Z,20
2017-03-15T09:11:08.819Z,20
2017-03-15T09:12:22.223Z,25
2017-03-15T09:13:36.226Z,30
2017-03-15T09:14:49.674Z,30
2017-03-15T09:16:03.641Z,35
2017-03-15T09:17:17.059Z,35
2017-03-15T09:18:31.025Z,40
2017-03-15T09:19:45.013Z,45
2017-03-15T09:20:58.413Z,55
2017-03-15T09:22:11.820Z,60
2017-03-15T09:23:25.769Z,65
2017-03-15T09:24:39.745Z,75
2017-03-15T09:25:53.733Z,80
2017-03-15T09:27:07.732Z,80
2017-03-15T09:28:21.139Z,85
2017-03-15T09:29:34.565Z,90
2017-03-15T09:30:47.993Z,90
2017-03-15T09:32:01.958Z,100
2017-03-15T09:33:15.917Z,100
2017-03-15T09:34:28.774Z,105
2017-03-15T09:35:41.629Z,110
2017-03-15T09:36:55.041Z,115
2017-03-15T09:38:08.986Z,120
2017-03-15T09:39:22.947Z,115
2017-03-15T09:40:36.933Z,120
2017-03-15T09:41:50.894Z,115
2017-03-15T09:43:04.895Z,115
2017-03-15T09:44:18.890Z,120
2017-03-15T09:45:31.726Z,130
2017-03-15T09:46:44.622Z,145
2017-03-15T09:47:58.030Z,155
2017-03-15T09:49:12.074Z,200
2017-03-15T09:50:25.485Z,255
2017-03-15T09:51:39.455Z,355
2017-03-15T09:52:51.760Z,410
2017-03-15T09:54:04.638Z,430
2017-03-15T09:55:18.061Z,320
2017-03-15T09:56:32.068Z,360
2017-03-15T09:57:44.914Z,365
2017-03-15T09:58:57.763Z,360
2017-03-15T10:00:11.762Z,640
2017-03-15T10:01:25.729Z,735
2017-03-15T10:02:39.167Z,660
2017-03-15T10:03:53.118Z,345
2017-03-15T10:05:05.972Z,315
2017-03-15T10:06:19.364Z,315
2017-03-15T10:07:33.300Z,325
2017-03-15T10:08:47.334Z,315
2017-03-15T10:10:01.320Z,300
2017-03-15T10:11:14.747Z,340
2017-03-15T10:12:28.168Z,380
2017-03-15T10:13:41.592Z,425
2017-03-15T10:14:55.023Z,445
2017-03-15T10:16:08.436Z,445
2017-03-15T10:17:22.390Z,485
2017-03-15T10:18:36.359Z,540
2017-03-15T10:19:49.769Z,590
2017-03-15T10:21:03.171Z,655
2017-03-15T10:22:17.161Z,905
2017-03-15T10:23:30.041Z,1150
2017-03-15T10:24:43.456Z,730
2017-03-15T10:25:57.455Z,1145
2017-03-15T10:27:11.458Z,1460
2017-03-15T10:28:24.888Z,1400
2017-03-15T10:29:38.305Z,1315
2017-03-15T10:30:51.702Z,1445
2017-03-15T10:32:05.664Z,1345
2017-03-15T10:33:19.112Z,1530
2017-03-15T10:34:33.116Z,1545
2017-03-15T10:35:46.529Z,1565
2017-03-15T10:37:00.484Z,1465
2017-03-15T10:38:13.930Z,1525
2017-03-15T10:39:27.911Z,700
2017-03-15T10:40:41.329Z,690
2017-03-15T10:41:54.734Z,825
2017-03-15T10:43:07.016Z,1540
2017-03-15T10:44:20.985Z,1800
2017-03-15T10:45:34.930Z,1780
2017-03-15T10:46:48.361Z,1480
2017-03-15T10:48:01.758Z,1855
2017-03-15T10:49:15.748Z,1865
2017-03-15T10:50:29.710Z,1505
2017-03-15T10:51:43.126Z,1765
2017-03-15T10:52:56.536Z,1515
2017-03-15T10:54:09.991Z,1825
2017-03-15T10:55:23.402Z,1615
2017-03-15T10:56:36.861Z,1085
2017-03-15T10:57:50.358Z,1060
2017-03-15T10:59:03.774Z,975
2017-03-15T11:00:17.786Z,1020
2017-03-15T11:01:31.759Z,1075
2017-03-15T11:02:45.789Z,740
2017-03-15T11:03:59.190Z,1895
2017-03-15T11:05:13.168Z,1960
2017-03-15T11:06:27.129Z,1850
2017-03-15T11:07:40.517Z,1825
2017-03-15T11:08:54.536Z,1990
2017-03-15T11:10:07.990Z,1740
2017-03-15T11:11:21.400Z,1170
2017-03-15T11:12:34.862Z,1110
2017-03-15T11:13:48.873Z,1920
2017-03-15T11:15:02.281Z,1115
2017-03-15T11:16:16.242Z,1640
2017-03-15T11:17:30.207Z,2000
2017-03-15T11:18:44.335Z,1065
2017-03-15T11:19:57.711Z,990
2017-03-15T11:21:11.691Z,1650
2017-03-15T11:22:25.667Z,1205
2017-03-15T11:23:39.676Z,970
2017-03-15T11:24:53.059Z,1050
2017-03-15T11:26:05.899Z,1495
2017-03-15T11:27:19.312Z,1040
2017-03-15T11:28:32.730Z,1110
2017-03-15T11:29:46.114Z,1295
2017-03-15T11:30:59.502Z,2205
2017-03-15T11:32:12.360Z,1480
2017-03-15T11:33:26.643Z,1400
2017-03-15T11:34:39.560Z,1430
2017-03-15T11:35:53.530Z,1045
2017-03-15T11:37:06.943Z,2540
2017-03-15T11:38:20.894Z,1775
2017-03-15T11:39:34.294Z,2945
2017-03-15T11:40:48.274Z,3160
2017-03-15T11:42:01.672Z,1950
2017-03-15T11:43:15.637Z,1610
2017-03-15T11:44:29.058Z,1525
2017-03-15T11:45:42.515Z,1510
2017-03-15T11:46:55.932Z,2025
2017-03-15T11:48:08.873Z,1715
2017-03-15T11:49:22.279Z,1860
2017-03-15T11:50:35.763Z,2200
2017-03-15T11:51:49.726Z,1580
2017-03-15T11:53:01.470Z,1475
2017-03-15T11:54:13.746Z,1410
2017-03-15T11:55:27.712Z,1370
2017-03-15T11:56:41.124Z,1340
2017-03-15T11:57:54.581Z,1360
2017-03-15T11:59:08.021Z,1305
2017-03-15T12:00:22.023Z,1495
2017-03-15T12:01:36.026Z,1515
2017-03-15T12:02:48.321Z,1400
2017-03-15T12:04:01.715Z,1690
2017-03-15T12:05:15.119Z,1780
2017-03-15T12:06:28.543Z,1610
2017-03-15T12:08:00.952Z,1670
2017-03-15T12:09:14.988Z,1575
2017-03-15T12:10:28.960Z,1735
2017-03-15T12:11:42.371Z,3530
2017-03-15T12:12:55.232Z,1715
2017-03-15T12:14:07.502Z,2820
2017-03-15T12:15:20.357Z,3095
2017-03-15T12:16:33.210Z,2555
2017-03-15T12:17:47.169Z,3835
2017-03-15T12:19:01.144Z,2740
2017-03-15T12:20:14.544Z,3790
2017-03-15T12:21:27.968Z,1935
2017-03-15T12:22:41.392Z,2930
2017-03-15T12:23:55.343Z,2780
2017-03-15T12:25:08.197Z,3360
2017-03-15T12:26:22.176Z,3385
2017-03-15T12:27:55.370Z,2725
2017-03-15T12:29:08.762Z,2440
2017-03-15T12:30:22.363Z,2490
2017-03-15T12:31:36.442Z,1870
2017-03-15T12:32:49.891Z,1735
2017-03-15T12:34:02.746Z,1830
2017-03-15T12:35:16.726Z,3545
2017-03-15T12:36:30.175Z,2930
2017-03-15T12:37:44.162Z,3335
2017-03-15T12:38:56.989Z,3575
2017-03-15T12:40:09.854Z,2860
2017-03-15T12:41:23.862Z,3310
2017-03-15T12:42:37.295Z,1835
2017-03-15T12:43:51.278Z,3530
2017-03-15T12:45:05.236Z,2505
2017-03-15T12:46:18.663Z,3330
2017-03-15T12:47:32.644Z,3310
2017-03-15T12:48:46.073Z,3435
2017-03-15T12:50:00.037Z,3410
2017-03-15T12:51:13.473Z,3630
2017-03-15T12:52:27.450Z,3635
2017-03-15T12:53:40.477Z,3495
2017-03-15T12:54:54.451Z,3220
2017-03-15T12:56:08.414Z,2160
2017-03-15T12:57:21.852Z,1130
2017-03-15T12:58:35.825Z,2100
2017-03-15T12:59:48.669Z,2775
2017-03-15T13:01:02.086Z,3105
2017-03-15T13:02:16.020Z,3235
2017-03-15T13:03:28.951Z,3360
2017-03-15T13:04:42.947Z,3305
2017-03-15T13:05:55.790Z,3320
2017-03-15T13:07:08.618Z,3380
2017-03-15T13:08:22.573Z,3140
2017-03-15T13:09:36.561Z,3125
2017-03-15T13:10:49.428Z,3345
2017-03-15T13:12:03.431Z,3485
2017-03-15T13:13:16.261Z,3635
2017-03-15T13:14:29.672Z,3250
2017-03-15T13:15:43.079Z,3280
2017-03-15T13:16:55.912Z,3595
2017-03-15T13:18:08.774Z,3865
2017-03-15T13:19:22.743Z,3380
2017-03-15T13:20:36.726Z,3470
2017-03-15T13:21:49.056Z,3335
2017-03-15T13:23:02.465Z,3580
2017-03-15T13:24:16.440Z,3745
2017-03-15T13:25:29.852Z,3680
2017-03-15T13:26:42.940Z,3635
2017-03-15T13:27:55.812Z,3750
2017-03-15T13:29:09.808Z,3745
2017-03-15T13:30:23.248Z,3715
2017-03-15T13:31:37.265Z,3805
2017-03-15T13:32:50.684Z,3650
2017-03-15T13:34:04.670Z,3705
2017-03-15T13:35:18.081Z,3260
2017-03-15T13:36:32.071Z,2865
2017-03-15T13:37:46.057Z,3695
2017-03-15T13:38:58.911Z,3815
2017-03-15T13:40:11.789Z,3910
2017-03-15T13:41:25.750Z,3715
2017-03-15T13:42:39.255Z,3715
2017-03-15T13:43:52.094Z,3665
2017-03-15T13:45:06.095Z,3730
2017-03-15T13:46:18.986Z,3840
2017-03-15T13:47:32.986Z,3610
2017-03-15T13:48:46.425Z,3675
2017-03-15T13:50:00.441Z,3640
2017-03-15T13:51:13.853Z,3650
2017-03-15T13:52:26.736Z,3860
2017-03-15T13:53:40.159Z,3620
2017-03-15T13:54:53.579Z,3685
2017-03-15T13:56:07.556Z,3370
2017-03-15T13:57:20.428Z,3365
2017-03-15T13:58:33.885Z,3535
2017-03-15T13:59:47.871Z,3895
2017-03-15T14:01:01.285Z,3995
2017-03-15T14:02:14.670Z,4110
2017-03-15T14:03:28.119Z,4135
2017-03-15T14:04:41.564Z,2255
2017-03-15T14:05:54.989Z,1385
2017-03-15T14:07:08.969Z,1150
2017-03-15T14:08:22.961Z,1450
2017-03-15T14:09:36.388Z,3980
2017-03-15T14:10:49.782Z,3840
2017-03-15T14:12:03.172Z,3590
2017-03-15T14:13:17.190Z,3745
2017-03-15T14:14:30.667Z,4175
2017-03-15T14:15:44.647Z,4140
2017-03-15T14:16:58.649Z,3665
2017-03-15T14:18:12.081Z,4175
2017-03-15T14:19:26.071Z,4355
2017-03-15T14:20:40.057Z,4390
2017-03-15T14:21:52.933Z,4530
2017-03-15T14:23:06.377Z,3010
2017-03-15T14:24:19.791Z,4630
2017-03-15T14:25:33.802Z,4395
2017-03-15T14:26:47.182Z,4285
2017-03-15T14:28:00.049Z,4465
2017-03-15T14:29:13.468Z,4505
2017-03-15T14:30:26.883Z,4480
2017-03-15T14:31:39.740Z,3990
2017-03-15T14:32:53.712Z,4015
2017-03-15T14:34:07.719Z,2650
2017-03-15T14:35:21.713Z,4155
2017-03-15T14:36:35.117Z,4305
2017-03-15T14:37:49.137Z,4375
2017-03-15T14:39:02.108Z,3450
2017-03-15T14:40:14.392Z,1685
2017-03-15T14:41:27.804Z,3755
2017-03-15T14:42:41.796Z,4000
2017-03-15T14:43:55.216Z,2485
2017-03-15T14:45:09.213Z,2595
2017-03-15T14:46:22.305Z,3300
2017-03-15T14:47:36.275Z,3565
2017-03-15T14:48:49.707Z,3565
2017-03-15T14:50:03.120Z,3740
2017-03-15T14:51:17.079Z,3835
2017-03-15T14:52:31.083Z,3420
2017-03-15T14:53:45.051Z,4160
2017-03-15T14:54:59.067Z,4000
2017-03-15T14:56:11.385Z,4215
2017-03-15T14:57:25.391Z,4120
2017-03-15T14:58:38.812Z,1775
2017-03-15T14:59:51.123Z,1470
2017-03-15T15:01:05.120Z,1525
2017-03-15T15:02:18.552Z,1980
2017-03-15T15:03:32.545Z,3340
2017-03-15T15:04:45.442Z,1550
2017-03-15T15:05:59.439Z,2055
2017-03-15T15:07:12.859Z,4220
2017-03-15T15:08:25.729Z,4020
2017-03-15T15:09:40.192Z,4335
2017-03-15T15:10:54.151Z,4290
2017-03-15T15:12:07.013Z,4415
2017-03-15T15:13:20.991Z,4405
2017-03-15T15:14:34.990Z,4550
2017-03-15T15:15:49.128Z,4475
2017-03-15T15:17:02.523Z,4545
2017-03-15T15:18:15.926Z,4360
2017-03-15T15:19:29.927Z,4250
2017-03-15T15:20:43.339Z,3965
2017-03-15T15:21:57.329Z,4280
2017-03-15T15:23:10.732Z,4205
2017-03-15T15:24:23.581Z,4175
2017-03-15T15:25:37.593Z,1365
2017-03-15T15:26:50.477Z,1255
2017-03-15T15:28:04.487Z,1140
2017-03-15T15:29:18.518Z,1130
2017-03-15T15:30:31.966Z,1180
2017-03-15T15:31:45.379Z,1090
2017-03-15T15:32:59.365Z,1075
2017-03-15T15:34:13.345Z,1145
2017-03-15T15:35:27.347Z,2665
2017-03-15T15:36:40.773Z,4440
2017-03-15T15:37:54.212Z,4305
2017-03-15T15:39:08.183Z,4225
2017-03-15T15:40:22.154Z,4430
2017-03-15T15:41:35.562Z,4135
2017-03-15T15:42:49.067Z,3610
2017-03-15T15:44:02.516Z,4130
2017-03-15T15:45:15.945Z,4150
2017-03-15T15:46:29.923Z,4080
2017-03-15T15:47:43.366Z,4375
2017-03-15T15:48:57.368Z,4060
2017-03-15T15:50:11.347Z,4120
2017-03-15T15:51:25.315Z,4190
2017-03-15T15:52:38.169Z,3960
2017-03-15T15:53:52.197Z,3940
2017-03-15T15:55:04.502Z,3805
2017-03-15T15:56:18.000Z,3795
2017-03-15T15:57:32.070Z,3935
2017-03-15T15:58:46.060Z,4030
2017-03-15T15:59:59.486Z,3560
2017-03-15T16:01:12.899Z,1600
2017-03-15T16:02:26.340Z,4005
2017-03-15T16:03:40.301Z,4645
2017-03-15T16:04:53.172Z,4435
2017-03-15T16:06:06.613Z,4265
2017-03-15T16:07:20.013Z,4070
2017-03-15T16:08:33.985Z,1760
2017-03-15T16:09:47.418Z,1460
2017-03-15T16:11:01.426Z,1390
2017-03-15T16:12:15.423Z,2165
2017-03-15T16:13:28.868Z,1210
2017-03-15T16:14:41.744Z,1145
2017-03-15T16:15:55.758Z,1105
2017-03-15T16:17:09.157Z,1110
2017-03-15T16:18:22.589Z,1070
2017-03-15T16:19:35.465Z,1050
2017-03-15T16:20:49.446Z,1075
2017-03-15T16:22:02.281Z,1080
2017-03-15T16:23:15.759Z,1090
2017-03-15T16:24:29.800Z,1035
2017-03-15T16:25:42.654Z,965
2017-03-15T16:26:56.635Z,895
2017-03-15T16:28:10.055Z,855
2017-03-15T16:29:24.061Z,835
2017-03-15T16:30:38.044Z,820
2017-03-15T16:31:51.485Z,810
2017-03-15T16:33:04.922Z,795
2017-03-15T16:34:18.899Z,760
2017-03-15T16:35:32.876Z,730
2017-03-15T16:36:46.284Z,720
2017-03-15T16:37:59.691Z,735
2017-03-15T16:39:13.650Z,740
2017-03-15T16:40:26.524Z,740
2017-03-15T16:41:40.548Z,730
2017-03-15T16:42:54.545Z,715
2017-03-15T16:44:06.833Z,710
2017-03-15T16:45:20.253Z,735
2017-03-15T16:46:33.842Z,770
2017-03-15T16:47:47.813Z,770
2017-03-15T16:49:01.200Z,740
2017-03-15T16:50:14.048Z,680
2017-03-15T16:51:28.038Z,620
2017-03-15T16:52:42.010Z,595
2017-03-15T16:53:56.000Z,620
2017-03-15T16:55:09.951Z,685
2017-03-15T16:56:22.847Z,760
2017-03-15T16:57:37.003Z,830
2017-03-15T16:58:50.987Z,910
2017-03-15T17:00:04.943Z,995
2017-03-15T17:01:18.386Z,1035
2017-03-15T17:02:32.425Z,1060
2017-03-15T17:03:46.378Z,1050
2017-03-15T17:04:59.970Z,1030
2017-03-15T17:06:12.831Z,980
2017-03-15T17:07:26.314Z,925
2017-03-15T17:08:39.191Z,855
2017-03-15T17:09:52.071Z,785
2017-03-15T17:11:04.968Z,780
2017-03-15T17:12:18.938Z,815
2017-03-15T17:13:33.131Z,875
2017-03-15T17:14:46.571Z,940
2017-03-15T17:16:00.020Z,995
2017-03-15T17:17:13.409Z,1030